Tuesday, July 17, 2018, 1:27 AM EDT
Back to Local

KELZ, Wellsville Municipal Airport

Location: Wellsville, NY, United States Lat: 42.1
Local Time: 1:27 AM EDT ( 5:27 GMT) Lon: -78
Time Zone: US/Eastern Elev: 2122 ft

Show me the last for .
Show Decoded

2018-07-17 01:05 METAR KELZ 170505Z AUTO 14004KT 5SM BR SCT001 SCT006 OVC100 20/20 A2996 RMK AO2
                 T02000200 =
2018-07-17 01:01 METAR KELZ 170501Z AUTO 15005KT 3SM BR BKN001 BKN006 OVC100 20/20 A2996 RMK AO2
                 LTG DSNT N AND NE T02000200 =
2018-07-17 00:56 METAR KELZ 170456Z AUTO 12003KT 1 1/4SM BR BKN001 OVC100 20/20 A2996 RMK AO2 LTG
                 DSNT N AND NE RAE29 SLP129 P0002 T02000200 403060189 =
2018-07-17 00:30 METAR KELZ 170430Z AUTO 14004KT 1/4SM FG BKN003 BKN050 OVC100 20/20 A2997 RMK
                 AO2 LTG DSNT E AND SE RAE29 P0002 T02000200 =
2018-07-17 00:25 METAR KELZ 170425Z AUTO 13003KT 1/4SM -RA FG SCT007 BKN050 OVC120 20/20 A2997
                 RMK AO2 LTG DSNT E AND SE P0002 T02000200 =
2018-07-17 00:17 METAR KELZ 170417Z AUTO 00000KT 3/4SM -RA BR FEW011 SCT080 BKN100 20/20 A2997
                 RMK AO2 LTG DSNT E AND SE P0002 T02000200 =
2018-07-17 00:12 METAR KELZ 170412Z AUTO 00000KT 1 3/4SM -RA BR FEW080 BKN100 BKN120 20/20 A2998
                 RMK AO2 LTG DSNT N-SE P0001 T02000200 =
2018-07-17 00:07 METAR KELZ 170407Z AUTO 03003KT 4SM -RA BR FEW002 FEW085 BKN110 20/20 A2998 RMK
                 AO2 LTG DSNT N-SE P0001 T02000200 =
2018-07-16 23:56 METAR KELZ 170356Z AUTO 00000KT 4SM VCTS -RA BR FEW043 SCT100 BKN120 20/19 A2998
                 RMK AO2 LTG DSNT NE-SE TSB29E44 SLP136 P0011 T02000194 =
2018-07-16 23:45 METAR KELZ 170345Z AUTO 00000KT 2 1/2SM VCTS -RA BR FEW033 SCT043 BKN110 20/20
                 A2998 RMK AO2 LTG DSNT ALQDS TSB29E44 P0011 T02000200 =
2018-07-16 23:37 METAR KELZ 170337Z AUTO 00000KT 6SM -TSRA BR SCT032 BKN044 BKN070 21/20 A2999
                 RMK AO2 LTG DSNT ALQDS TSB29 P0010 T02060200 =
2018-07-16 23:29 METAR KELZ 170329Z AUTO 32005KT 2 1/2SM -TSRA BR BKN030 BKN036 OVC044 21/20
                 A2999 RMK AO2 LTG DSNT ALQDS TSB29 P0010 T02060200 =
2018-07-16 22:56 METAR KELZ 170256Z AUTO 30011KT 7SM VCTS -RA FEW008 BKN036 OVC120 22/20 A3000
                 RMK AO2 LTG DSNT ALQDS RAE29B47 TSE06 SLP143 P0009 60037 T02170200 53001 =
2018-07-16 22:26 METAR KELZ 170226Z AUTO 00000KT 6SM -RA BR FEW003 SCT038 BKN050 21/21 A2999 RMK
                 AO2 LTG DSNT ALQDS TSE06 P0009 T02110206 =
2018-07-16 22:17 METAR KELZ 170217Z AUTO 27005KT 3SM -RA BR FEW039 BKN047 OVC100 21/21 A3000 RMK
                 AO2 LTG DSNT W-NE TSE06 P0009 T02110206 =
2018-07-16 22:12 METAR KELZ 170212Z AUTO 00000KT 1 1/2SM RA BR BKN047 BKN060 OVC075 21/21 A2998
                 RMK AO2 LTG DSNT W AND NW TSE06 P0009 T02110206 =
2018-07-16 21:56 METAR KELZ 170156Z AUTO 22005KT 1 1/4SM +TSRA BR SCT041 BKN049 OVC070 21/21
                 A2999 RMK AO2 LTG DSNT ALQDS TSB05E20B51 SLP138 P0013 T02110206 =
2018-07-16 21:51 METAR KELZ 170151Z AUTO 20008KT 2 1/2SM +TSRA BR SCT041 BKN049 OVC070 21/21
                 A2999 RMK AO2 LTG DSNT ALQDS TSB05E20B51 P0007 =
2018-07-16 21:26 METAR KELZ 170126Z AUTO 17006KT 5SM VCTS -RA BR FEW032 BKN080 OVC110 21/21 A2997
                 RMK AO2 LTG DSNT ALQDS TSB05E20 P0002 T02110206 =
2018-07-16 21:11 METAR KELZ 170111Z AUTO VRB04KT 4SM -TSRA BR FEW004 BKN095 OVC110 21/21 A2997
                 RMK AO2 LTG DSNT ALQDS TSB05 P0001 T02110206 =
2018-07-16 20:56 METAR KELZ 170056Z AUTO 15005KT 4SM VCTS -RA BR SCT004 BKN055 OVC110 21/21 A2998
                 RMK AO2 LTG DSNT E-SW TSB22E37 PRESFR SLP137 P0015 T02110206 =
2018-07-16 20:43 METAR KELZ 170043Z AUTO VRB06KT 6SM VCTS -RA BR BKN004 BKN050 OVC065 21/21 A2999
                 RMK AO2 LTG DSNT E-SW TSB22E37 P0014 T02110206 =
2018-07-16 20:29 METAR KELZ 170029Z AUTO 14007KT 3SM -TSRA BR FEW005 BKN060 OVC085 21/21 A2998
                 RMK AO2 LTG DSNT E-SW TSB22 P0014 T02110206 =
2018-07-16 20:22 METAR KELZ 170022Z AUTO 15008KT 1 1/2SM -TSRA BR FEW005 SCT034 OVC055 21/21
                 A2998 RMK AO2 VIS 3/4V3 LTG DSNT ALQDS TSB22 P0014 T02110206 =
2018-07-16 20:17 METAR KELZ 170017Z AUTO 15007KT 3/4SM VCTS -RA BR FEW007 BKN034 OVC055 21/21
                 A2998 RMK AO2 LTG DSNT ALQDS P0014 T02110211 =
2018-07-16 20:10 METAR KELZ 170010Z AUTO 11010KT 3/4SM VCTS -RA BR FEW006 BKN015 OVC043 21/21
                 A2998 RMK AO2 LTG DSNT ALQDS P0013 T02110206 =
2018-07-16 20:01 METAR KELZ 170001Z AUTO 15003KT 1 3/4SM VCTS +RA BR SCT006 BKN012 OVC055 22/21
                 A3000 RMK AO2 LTG DSNT ALQDS P0002 T02170211 =
2018-07-16 19:56 METAR KELZ 162356Z AUTO 15005KT 4SM VCTS -RA BR FEW004 BKN012 OVC070 22/21 A3000
                 RMK AO2 LTG DSNT ALQDS RAB56 TSB06E45 SLP144 P0001 60055 T02170206 10306 20211
                 53005 =
2018-07-16 19:51 METAR KELZ 162351Z AUTO 13006KT 6SM VCTS BR SCT013 BKN055 OVC080 22/21 A2999 RMK
                 AO2 LTG DSNT ALQDS TSB06E45 =
2018-07-16 19:12 METAR KELZ 162312Z AUTO 10003KT 8SM TS SCT047 BKN055 OVC100 22/21 A2999 RMK AO2
                 LTG DSNT ALQDS TSB06 T02220211 =
2018-07-16 18:56 METAR KELZ 162256Z AUTO 12007KT 9SM VCTS BKN050 BKN065 OVC100 22/21 A2998 RMK
                 AO2 LTG DSNT ALQDS RAE46 TSE17B22E49 SLP140 P0023 T02170206 =
2018-07-16 18:22 METAR KELZ 162222Z AUTO 12007KT 4SM -TSRA BR SCT045 BKN065 BKN085 21/20 A2997
                 RMK AO2 LTG DSNT ALQDS TSE17B22 P0023 T02110200 =
2018-07-16 18:20 METAR KELZ 162220Z AUTO 11006KT 2SM VCTS -RA BR SCT045 BKN065 OVC095 21/20 A2997
                 RMK AO2 LTG DSNT ALQDS TSE17 P0023 T02110200 =
2018-07-16 18:08 METAR KELZ 162208Z AUTO 16012G20KT 3/4SM +TSRA BR SCT046 BKN070 OVC095 22/20
                 A2998 RMK AO2 LTG DSNT E-SW P0016 T02170200 =
2018-07-16 17:56 METAR KELZ 162156Z AUTO 20009G15KT 1 3/4SM -TSRA BR SCT035 BKN065 OVC080 22/21
                 A2999 RMK AO2 LTG DSNT SW RAB22 TSB16 SLP145 P0031 T02220206 =
2018-07-16 17:51 METAR KELZ 162151Z AUTO 14009KT 2SM -TSRA BR FEW032 BKN070 OVC085 22/21 A2999
                 RMK AO2 LTG DSNT S RAB22 TSB16 P0026 =
2018-07-16 17:39 METAR KELZ 162139Z AUTO 20009KT 1/2SM +TSRA FG SCT030 BKN070 OVC090 23/22 A2998
                 RMK AO2 LTG DSNT NE AND SW RAB22 TSB16 P0022 T02280217 =
2018-07-16 17:30 METAR KELZ 162130Z AUTO 26010KT 1 3/4SM +TSRA FEW065 BKN080 BKN110 24/22 A2998
                 RMK AO2 LTG DSNT NE AND SW RAB22 TSB16 P0004 T02440217 =
2018-07-16 17:22 METAR KELZ 162122Z AUTO 32007KT 9SM -TSRA FEW060 BKN080 BKN110 26/21 A2997 RMK
                 AO2 LTG DSNT NE AND SW RAB22 TSB16 P0000 T02610206 =
2018-07-16 17:09 METAR KELZ 162109Z AUTO 32010KT 10SM VCTS SCT055 SCT110 27/21 A2997 RMK AO2
                 T02670206 =
2018-07-16 15:56 METAR KELZ 161956Z AUTO 24006KT 10SM CLR 30/21 A2999 RMK AO2 LTG DSNT W-N SLP137
                 T03000211 =
2018-07-16 14:56 METAR KELZ 161856Z AUTO 27006KT 10SM FEW045 31/21 A3000 RMK AO2 LTG DSNT W
                 SLP143 T03060211 =
2018-07-16 13:56 METAR KELZ 161756Z AUTO VRB06KT 10SM FEW045 FEW060 30/21 A3002 RMK AO2 SLP149
                 T03000206 10306 20222 58013 =
2018-07-16 12:56 METAR KELZ 161656Z AUTO 23007KT 10SM FEW037 SCT043 29/21 A3005 RMK AO2 SLP157
                 T02940206 =
2018-07-16 12:16 METAR KELZ 161616Z AUTO VRB03KT 10SM SCT028 29/21 A3006 RMK AO2 T02890211 =
2018-07-16 11:56 METAR KELZ 161556Z AUTO VRB04KT 10SM BKN028 28/22 A3006 RMK AO2 SLP162 T02830217
                 =
2018-07-16 10:56 METAR KELZ 161456Z AUTO 00000KT 8SM FEW020 27/22 A3006 RMK AO2 SLP164 T02720222
                 58004 =
2018-07-16 09:56 METAR KELZ 161356Z AUTO VRB03KT 8SM CLR 26/22 A3007 RMK AO2 SLP166 T02610222 =
2018-07-16 08:56 METAR KELZ 161256Z AUTO 24005KT 7SM CLR 24/22 A3008 RMK AO2 SLP169 T02440217 =
2018-07-16 07:56 METAR KELZ 161156Z AUTO VRB03KT 5SM BR CLR 22/21 A3008 RMK AO2 SLP169 T02220211
                 10222 20189 53005 =
2018-07-16 07:23 METAR KELZ 161123Z AUTO 00000KT 3SM BR CLR 21/21 A3008 RMK AO2 T02110206 $ =
2018-07-16 07:08 METAR KELZ 161108Z AUTO 00000KT 2 1/2SM BR CLR 21/20 A3007 RMK AO2 T02110200 $ =
2018-07-16 06:56 METAR KELZ 161056Z AUTO 00000KT 1 1/4SM BR CLR 21/19 A3007 RMK AO2 SLP166
                 T02060194 $ =
2018-07-16 06:42 METAR KELZ 161042Z AUTO 00000KT 2SM BR CLR 20/19 A3006 RMK AO2 T02000194 $ =
2018-07-16 06:30 METAR KELZ 161030Z AUTO 00000KT 1 1/2SM BR CLR 20/19 A3006 RMK AO2 T02000194 $ =
2018-07-16 06:22 METAR KELZ 161022Z AUTO 10003KT 2SM BR CLR 19/19 A3006 RMK AO2 T01940194 $ =
2018-07-16 06:11 METAR KELZ 161011Z AUTO 00000KT 1 1/2SM BR CLR 19/19 A3006 RMK AO2 T01890189 $ =
2018-07-16 05:56 METAR KELZ 160956Z AUTO 00000KT 3/4SM BR CLR 19/19 A3006 RMK AO2 SLP164
                 T01940194 $ =
2018-07-16 05:45 METAR KELZ 160945Z AUTO 00000KT 1 3/4SM BR CLR 19/19 A3006 RMK AO2 T01940189 $ =
2018-07-16 04:56 METAR KELZ 160856Z AUTO 00000KT 5SM BR CLR 20/19 A3006 RMK AO2 SLP164 T02000194
                 58002 $ =
2018-07-16 04:21 METAR KELZ 160821Z AUTO 00000KT 3SM BR FEW003 19/19 A3006 RMK AO2 T01940194 $ =
2018-07-16 04:16 METAR KELZ 160816Z AUTO 00000KT 1 1/2SM BR FEW003 19/19 A3007 RMK AO2 T01940189
                 $ =
2018-07-16 04:07 METAR KELZ 160807Z AUTO 00000KT 3/4SM BR VV003 19/19 A3007 RMK AO2 T01890189 $ =
2018-07-16 03:56 METAR KELZ 160756Z AUTO 00000KT 1 1/4SM BR CLR 19/19 A3006 RMK AO2 SLP165
                 T01940189 $ =
2018-07-16 03:53 METAR KELZ 160753Z AUTO 00000KT 1 3/4SM BR CLR 19/19 A3007 RMK AO2 $ =
2018-07-16 02:56 METAR KELZ 160656Z AUTO 00000KT 5SM BR CLR 20/20 A3007 RMK AO2 SLP165 T02000200
                 $ =
2018-07-16 01:56 METAR KELZ 160556Z AUTO 00000KT 7SM CLR 21/20 A3007 RMK AO2 SLP166 T02060200
                 10272 20206 58003 $ =

Support USWX by starting your Amazon purchase here.